sensor_id;sensor_type;location;lat;lon;timestamp;P1;durP1;ratioP1;P2;durP2;ratioP2
71343;SDS011;59146;43.850;25.948;2023-05-02T00:01:19;9.60;;;5.00;;
71343;SDS011;59146;43.850;25.948;2023-05-02T00:03:45;8.45;;;4.18;;
71343;SDS011;59146;43.850;25.948;2023-05-02T00:06:10;11.50;;;6.05;;
71343;SDS011;59146;43.850;25.948;2023-05-02T00:08:36;9.88;;;4.40;;
71343;SDS011;59146;43.850;25.948;2023-05-02T00:11:02;10.27;;;5.28;;
71343;SDS011;59146;43.850;25.948;2023-05-02T00:13:27;9.02;;;4.13;;
71343;SDS011;59146;43.850;25.948;2023-05-02T00:15:53;8.27;;;5.63;;
71343;SDS011;59146;43.850;25.948;2023-05-02T00:18:18;6.45;;;4.50;;
71343;SDS011;59146;43.850;25.948;2023-05-02T00:20:44;8.65;;;5.32;;
71343;SDS011;59146;43.850;25.948;2023-05-02T00:23:09;7.45;;;5.43;;
71343;SDS011;59146;43.850;25.948;2023-05-02T00:25:36;8.23;;;5.47;;
71343;SDS011;59146;43.850;25.948;2023-05-02T00:28:01;9.05;;;6.00;;
71343;SDS011;59146;43.850;25.948;2023-05-02T00:30:26;11.77;;;5.15;;
71343;SDS011;59146;43.850;25.948;2023-05-02T00:32:53;9.15;;;4.97;;
71343;SDS011;59146;43.850;25.948;2023-05-02T00:35:18;8.40;;;4.35;;
71343;SDS011;59146;43.850;25.948;2023-05-02T00:37:44;11.40;;;4.40;;
71343;SDS011;59146;43.850;25.948;2023-05-02T00:40:09;7.03;;;3.90;;
71343;SDS011;59146;43.850;25.948;2023-05-02T00:42:35;15.10;;;4.60;;
71343;SDS011;59146;43.850;25.948;2023-05-02T00:45:02;6.75;;;3.83;;
71343;SDS011;59146;43.850;25.948;2023-05-02T00:47:30;9.57;;;4.78;;
71343;SDS011;59146;43.850;25.948;2023-05-02T00:49:56;5.93;;;5.00;;
71343;SDS011;59146;43.850;25.948;2023-05-02T00:52:22;8.13;;;4.47;;
71343;SDS011;59146;43.850;25.948;2023-05-02T00:54:49;13.18;;;4.93;;
71343;SDS011;59146;43.850;25.948;2023-05-02T00:57:15;10.73;;;4.90;;
71343;SDS011;59146;43.850;25.948;2023-05-02T00:59:40;10.15;;;4.88;;
71343;SDS011;59146;43.850;25.948;2023-05-02T01:05:01;12.93;;;4.75;;
71343;SDS011;59146;43.850;25.948;2023-05-02T01:10:24;7.18;;;4.38;;
71343;SDS011;59146;43.850;25.948;2023-05-02T01:15:41;9.02;;;4.93;;
71343;SDS011;59146;43.850;25.948;2023-05-02T01:18:09;11.73;;;5.25;;
71343;SDS011;59146;43.850;25.948;2023-05-02T01:20:38;8.35;;;5.55;;
71343;SDS011;59146;43.850;25.948;2023-05-02T01:23:11;17.00;;;6.00;;
71343;SDS011;59146;43.850;25.948;2023-05-02T01:31:13;13.18;;;6.30;;
71343;SDS011;59146;43.850;25.948;2023-05-02T01:33:40;11.48;;;7.03;;
71343;SDS011;59146;43.850;25.948;2023-05-02T01:36:08;12.10;;;6.72;;
71343;SDS011;59146;43.850;25.948;2023-05-02T01:38:36;8.20;;;6.00;;
71343;SDS011;59146;43.850;25.948;2023-05-02T01:41:04;15.40;;;6.68;;
71343;SDS011;59146;43.850;25.948;2023-05-02T01:43:31;11.13;;;6.35;;
71343;SDS011;59146;43.850;25.948;2023-05-02T01:45:59;10.07;;;6.55;;
71343;SDS011;59146;43.850;25.948;2023-05-02T01:48:26;13.73;;;5.85;;
71343;SDS011;59146;43.850;25.948;2023-05-02T01:50:53;16.92;;;6.15;;
71343;SDS011;59146;43.850;25.948;2023-05-02T01:53:21;9.38;;;6.10;;
71343;SDS011;59146;43.850;25.948;2023-05-02T01:55:48;13.95;;;7.00;;
71343;SDS011;59146;43.850;25.948;2023-05-02T01:58:14;12.95;;;6.13;;
71343;SDS011;59146;43.850;25.948;2023-05-02T02:00:43;9.65;;;6.50;;
71343;SDS011;59146;43.850;25.948;2023-05-02T02:03:10;11.20;;;6.10;;
71343;SDS011;59146;43.850;25.948;2023-05-02T02:05:37;14.88;;;6.80;;
71343;SDS011;59146;43.850;25.948;2023-05-02T02:08:04;14.65;;;6.70;;
71343;SDS011;59146;43.850;25.948;2023-05-02T02:10:31;15.50;;;7.35;;
71343;SDS011;59146;43.850;25.948;2023-05-02T02:13:17;9.38;;;6.60;;
71343;SDS011;59146;43.850;25.948;2023-05-02T02:15:46;13.32;;;6.60;;
71343;SDS011;59146;43.850;25.948;2023-05-02T02:18:21;18.38;;;6.60;;
71343;SDS011;59146;43.850;25.948;2023-05-02T02:20:50;29.98;;;8.45;;
71343;SDS011;59146;43.850;25.948;2023-05-02T02:23:17;14.05;;;7.60;;
71343;SDS011;59146;43.850;25.948;2023-05-02T02:25:44;18.15;;;7.30;;
71343;SDS011;59146;43.850;25.948;2023-05-02T02:28:11;22.65;;;7.25;;
71343;SDS011;59146;43.850;25.948;2023-05-02T02:30:36;9.73;;;6.05;;
71343;SDS011;59146;43.850;25.948;2023-05-02T02:33:02;11.90;;;6.70;;
71343;SDS011;59146;43.850;25.948;2023-05-02T02:35:29;16.23;;;6.85;;
71343;SDS011;59146;43.850;25.948;2023-05-02T02:41:00;18.08;;;6.32;;
71343;SDS011;59146;43.850;25.948;2023-05-02T02:48:54;13.60;;;6.88;;
71343;SDS011;59146;43.850;25.948;2023-05-02T02:51:29;15.57;;;7.60;;
71343;SDS011;59146;43.850;25.948;2023-05-02T02:54:04;12.23;;;7.18;;
71343;SDS011;59146;43.850;25.948;2023-05-02T02:56:41;14.60;;;7.43;;
71343;SDS011;59146;43.850;25.948;2023-05-02T03:02:03;14.75;;;7.68;;
71343;SDS011;59146;43.850;25.948;2023-05-02T03:04:32;11.88;;;7.28;;
71343;SDS011;59146;43.850;25.948;2023-05-02T03:07:00;15.68;;;8.63;;
71343;SDS011;59146;43.850;25.948;2023-05-02T03:09:26;17.13;;;8.15;;
71343;SDS011;59146;43.850;25.948;2023-05-02T03:11:54;17.05;;;8.32;;
71343;SDS011;59146;43.850;25.948;2023-05-02T03:14:21;15.43;;;7.95;;
71343;SDS011;59146;43.850;25.948;2023-05-02T03:16:47;16.83;;;8.38;;
71343;SDS011;59146;43.850;25.948;2023-05-02T03:19:13;15.20;;;8.18;;
71343;SDS011;59146;43.850;25.948;2023-05-02T03:21:38;22.05;;;8.30;;
71343;SDS011;59146;43.850;25.948;2023-05-02T03:24:04;15.82;;;8.00;;
71343;SDS011;59146;43.850;25.948;2023-05-02T03:26:29;16.55;;;7.43;;
71343;SDS011;59146;43.850;25.948;2023-05-02T03:28:55;28.70;;;9.25;;
71343;SDS011;59146;43.850;25.948;2023-05-02T03:31:21;20.60;;;8.52;;
71343;SDS011;59146;43.850;25.948;2023-05-02T03:33:47;12.98;;;8.27;;
71343;SDS011;59146;43.850;25.948;2023-05-02T03:36:13;18.25;;;7.85;;
71343;SDS011;59146;43.850;25.948;2023-05-02T03:38:39;13.80;;;7.60;;
71343;SDS011;59146;43.850;25.948;2023-05-02T03:41:04;17.08;;;7.00;;
71343;SDS011;59146;43.850;25.948;2023-05-02T03:43:30;30.50;;;8.05;;
71343;SDS011;59146;43.850;25.948;2023-05-02T03:45:56;18.38;;;7.68;;
71343;SDS011;59146;43.850;25.948;2023-05-02T03:48:22;12.75;;;6.55;;
71343;SDS011;59146;43.850;25.948;2023-05-02T03:50:47;11.18;;;6.47;;
71343;SDS011;59146;43.850;25.948;2023-05-02T03:53:14;19.63;;;7.55;;
71343;SDS011;59146;43.850;25.948;2023-05-02T03:55:40;8.60;;;5.75;;
71343;SDS011;59146;43.850;25.948;2023-05-02T03:58:06;14.27;;;6.97;;
71343;SDS011;59146;43.850;25.948;2023-05-02T04:00:32;14.13;;;6.18;;
71343;SDS011;59146;43.850;25.948;2023-05-02T04:02:59;15.60;;;6.57;;
71343;SDS011;59146;43.850;25.948;2023-05-02T04:05:25;12.57;;;6.30;;
71343;SDS011;59146;43.850;25.948;2023-05-02T04:07:51;12.60;;;5.30;;
71343;SDS011;59146;43.850;25.948;2023-05-02T04:10:16;18.60;;;6.57;;
71343;SDS011;59146;43.850;25.948;2023-05-02T04:12:42;18.95;;;6.97;;
71343;SDS011;59146;43.850;25.948;2023-05-02T04:15:08;8.00;;;5.07;;
71343;SDS011;59146;43.850;25.948;2023-05-02T04:17:34;14.10;;;4.95;;
71343;SDS011;59146;43.850;25.948;2023-05-02T04:20:00;20.77;;;5.97;;
71343;SDS011;59146;43.850;25.948;2023-05-02T04:22:25;16.65;;;5.85;;
71343;SDS011;59146;43.850;25.948;2023-05-02T04:24:51;27.23;;;7.50;;
71343;SDS011;59146;43.850;25.948;2023-05-02T04:27:17;20.88;;;7.32;;
71343;SDS011;59146;43.850;25.948;2023-05-02T04:29:43;28.88;;;6.93;;
71343;SDS011;59146;43.850;25.948;2023-05-02T04:32:11;30.77;;;7.57;;
71343;SDS011;59146;43.850;25.948;2023-05-02T04:34:37;23.80;;;6.35;;
71343;SDS011;59146;43.850;25.948;2023-05-02T04:37:02;26.70;;;6.70;;
71343;SDS011;59146;43.850;25.948;2023-05-02T04:39:28;22.13;;;6.47;;
71343;SDS011;59146;43.850;25.948;2023-05-02T04:41:53;17.80;;;5.90;;
71343;SDS011;59146;43.850;25.948;2023-05-02T04:44:19;32.03;;;7.82;;
71343;SDS011;59146;43.850;25.948;2023-05-02T04:46:44;31.80;;;7.13;;
71343;SDS011;59146;43.850;25.948;2023-05-02T04:49:10;27.10;;;7.13;;
71343;SDS011;59146;43.850;25.948;2023-05-02T04:51:35;24.88;;;5.93;;
71343;SDS011;59146;43.850;25.948;2023-05-02T04:54:01;23.35;;;6.18;;
71343;SDS011;59146;43.850;25.948;2023-05-02T04:56:26;18.33;;;4.30;;
71343;SDS011;59146;43.850;25.948;2023-05-02T04:58:52;16.88;;;5.40;;
71343;SDS011;59146;43.850;25.948;2023-05-02T05:01:17;26.63;;;5.78;;
71343;SDS011;59146;43.850;25.948;2023-05-02T05:03:43;15.68;;;4.97;;
71343;SDS011;59146;43.850;25.948;2023-05-02T05:06:08;31.50;;;6.65;;
71343;SDS011;59146;43.850;25.948;2023-05-02T05:08:33;28.38;;;6.38;;
71343;SDS011;59146;43.850;25.948;2023-05-02T05:10:59;21.92;;;5.72;;
71343;SDS011;59146;43.850;25.948;2023-05-02T05:13:24;19.63;;;4.80;;
71343;SDS011;59146;43.850;25.948;2023-05-02T05:15:50;13.75;;;5.30;;
71343;SDS011;59146;43.850;25.948;2023-05-02T05:18:15;11.45;;;3.65;;
71343;SDS011;59146;43.850;25.948;2023-05-02T05:20:40;17.67;;;5.32;;
71343;SDS011;59146;43.850;25.948;2023-05-02T05:23:06;16.73;;;4.63;;
71343;SDS011;59146;43.850;25.948;2023-05-02T05:25:31;21.95;;;5.40;;
71343;SDS011;59146;43.850;25.948;2023-05-02T05:28:00;22.40;;;4.97;;
71343;SDS011;59146;43.850;25.948;2023-05-02T05:30:26;46.67;;;8.50;;
71343;SDS011;59146;43.850;25.948;2023-05-02T05:32:51;19.33;;;4.85;;
71343;SDS011;59146;43.850;25.948;2023-05-02T05:35:17;19.88;;;5.47;;
71343;SDS011;59146;43.850;25.948;2023-05-02T05:37:42;11.60;;;3.95;;
71343;SDS011;59146;43.850;25.948;2023-05-02T05:40:08;12.43;;;4.45;;
71343;SDS011;59146;43.850;25.948;2023-05-02T05:42:34;10.57;;;3.30;;
71343;SDS011;59146;43.850;25.948;2023-05-02T05:45:00;10.32;;;3.90;;
71343;SDS011;59146;43.850;25.948;2023-05-02T05:47:25;16.63;;;4.40;;
71343;SDS011;59146;43.850;25.948;2023-05-02T05:49:51;11.68;;;3.28;;
71343;SDS011;59146;43.850;25.948;2023-05-02T05:52:17;13.70;;;4.30;;
71343;SDS011;59146;43.850;25.948;2023-05-02T05:54:43;8.27;;;4.35;;
71343;SDS011;59146;43.850;25.948;2023-05-02T05:57:08;6.32;;;3.55;;
71343;SDS011;59146;43.850;25.948;2023-05-02T05:59:34;9.07;;;3.22;;
71343;SDS011;59146;43.850;25.948;2023-05-02T06:02:00;7.65;;;3.38;;
71343;SDS011;59146;43.850;25.948;2023-05-02T06:04:25;15.35;;;4.10;;
71343;SDS011;59146;43.850;25.948;2023-05-02T06:06:51;10.02;;;3.75;;
71343;SDS011;59146;43.850;25.948;2023-05-02T06:09:17;13.70;;;3.83;;
71343;SDS011;59146;43.850;25.948;2023-05-02T06:11:43;13.10;;;3.45;;
71343;SDS011;59146;43.850;25.948;2023-05-02T06:14:08;11.88;;;3.95;;
71343;SDS011;59146;43.850;25.948;2023-05-02T06:16:34;26.00;;;6.88;;
71343;SDS011;59146;43.850;25.948;2023-05-02T06:19:00;17.80;;;3.95;;
71343;SDS011;59146;43.850;25.948;2023-05-02T06:21:25;10.88;;;3.63;;
71343;SDS011;59146;43.850;25.948;2023-05-02T06:23:51;14.98;;;3.53;;
71343;SDS011;59146;43.850;25.948;2023-05-02T06:26:17;14.18;;;4.05;;
71343;SDS011;59146;43.850;25.948;2023-05-02T06:28:42;12.23;;;3.80;;
71343;SDS011;59146;43.850;25.948;2023-05-02T06:31:08;11.18;;;3.20;;
71343;SDS011;59146;43.850;25.948;2023-05-02T06:33:35;27.08;;;4.18;;
71343;SDS011;59146;43.850;25.948;2023-05-02T06:36:00;6.68;;;2.95;;
71343;SDS011;59146;43.850;25.948;2023-05-02T06:38:26;14.38;;;3.60;;
71343;SDS011;59146;43.850;25.948;2023-05-02T06:40:52;10.60;;;3.15;;
71343;SDS011;59146;43.850;25.948;2023-05-02T06:43:17;14.68;;;3.78;;
71343;SDS011;59146;43.850;25.948;2023-05-02T06:45:45;17.85;;;3.72;;
71343;SDS011;59146;43.850;25.948;2023-05-02T06:48:11;21.17;;;4.15;;
71343;SDS011;59146;43.850;25.948;2023-05-02T06:50:39;16.95;;;3.53;;
71343;SDS011;59146;43.850;25.948;2023-05-02T06:53:04;19.52;;;3.67;;
71343;SDS011;59146;43.850;25.948;2023-05-02T06:55:30;16.88;;;3.97;;
71343;SDS011;59146;43.850;25.948;2023-05-02T06:57:55;13.52;;;3.75;;
71343;SDS011;59146;43.850;25.948;2023-05-02T07:00:21;12.23;;;3.70;;
71343;SDS011;59146;43.850;25.948;2023-05-02T07:02:47;10.25;;;3.08;;
71343;SDS011;59146;43.850;25.948;2023-05-02T07:05:13;16.23;;;3.85;;
71343;SDS011;59146;43.850;25.948;2023-05-02T07:07:40;11.13;;;3.45;;
71343;SDS011;59146;43.850;25.948;2023-05-02T07:10:07;13.88;;;3.35;;
71343;SDS011;59146;43.850;25.948;2023-05-02T07:12:33;7.47;;;2.63;;
71343;SDS011;59146;43.850;25.948;2023-05-02T07:14:58;9.93;;;3.55;;
71343;SDS011;59146;43.850;25.948;2023-05-02T07:17:24;12.48;;;3.92;;
71343;SDS011;59146;43.850;25.948;2023-05-02T07:19:50;12.10;;;3.28;;
71343;SDS011;59146;43.850;25.948;2023-05-02T07:22:16;14.15;;;3.47;;
71343;SDS011;59146;43.850;25.948;2023-05-02T07:24:42;16.55;;;3.78;;
71343;SDS011;59146;43.850;25.948;2023-05-02T07:27:08;11.13;;;3.45;;
71343;SDS011;59146;43.850;25.948;2023-05-02T07:29:35;12.23;;;2.92;;
71343;SDS011;59146;43.850;25.948;2023-05-02T07:32:00;22.23;;;3.90;;
71343;SDS011;59146;43.850;25.948;2023-05-02T07:34:27;10.75;;;3.53;;
71343;SDS011;59146;43.850;25.948;2023-05-02T07:36:52;9.93;;;2.92;;
71343;SDS011;59146;43.850;25.948;2023-05-02T07:39:18;10.63;;;3.45;;
71343;SDS011;59146;43.850;25.948;2023-05-02T07:41:43;22.30;;;4.88;;
71343;SDS011;59146;43.850;25.948;2023-05-02T07:44:10;11.60;;;3.00;;
71343;SDS011;59146;43.850;25.948;2023-05-02T07:46:35;8.50;;;2.88;;
71343;SDS011;59146;43.850;25.948;2023-05-02T07:49:01;16.92;;;4.43;;
71343;SDS011;59146;43.850;25.948;2023-05-02T07:51:26;12.05;;;3.83;;
71343;SDS011;59146;43.850;25.948;2023-05-02T07:53:52;7.28;;;3.08;;
71343;SDS011;59146;43.850;25.948;2023-05-02T07:56:19;3.72;;;2.38;;
71343;SDS011;59146;43.850;25.948;2023-05-02T07:58:45;10.75;;;3.03;;
71343;SDS011;59146;43.850;25.948;2023-05-02T08:01:10;3.30;;;2.50;;
71343;SDS011;59146;43.850;25.948;2023-05-02T08:03:36;5.88;;;2.17;;
71343;SDS011;59146;43.850;25.948;2023-05-02T08:06:01;6.65;;;2.60;;
71343;SDS011;59146;43.850;25.948;2023-05-02T08:08:27;6.00;;;2.42;;
71343;SDS011;59146;43.850;25.948;2023-05-02T08:10:53;7.38;;;2.78;;
71343;SDS011;59146;43.850;25.948;2023-05-02T08:13:18;13.40;;;2.78;;
71343;SDS011;59146;43.850;25.948;2023-05-02T08:15:44;21.65;;;3.15;;
71343;SDS011;59146;43.850;25.948;2023-05-02T08:18:10;11.02;;;2.33;;
71343;SDS011;59146;43.850;25.948;2023-05-02T08:20:35;11.82;;;2.42;;
71343;SDS011;59146;43.850;25.948;2023-05-02T08:23:01;26.60;;;2.80;;
71343;SDS011;59146;43.850;25.948;2023-05-02T08:25:26;8.93;;;2.22;;
71343;SDS011;59146;43.850;25.948;2023-05-02T08:27:52;12.55;;;2.70;;
71343;SDS011;59146;43.850;25.948;2023-05-02T08:30:17;10.60;;;2.33;;
71343;SDS011;59146;43.850;25.948;2023-05-02T08:32:44;7.28;;;2.83;;
71343;SDS011;59146;43.850;25.948;2023-05-02T08:35:10;11.10;;;3.00;;
71343;SDS011;59146;43.850;25.948;2023-05-02T08:37:35;7.18;;;2.63;;
71343;SDS011;59146;43.850;25.948;2023-05-02T08:40:01;9.57;;;2.40;;
71343;SDS011;59146;43.850;25.948;2023-05-02T08:42:27;8.27;;;2.60;;
71343;SDS011;59146;43.850;25.948;2023-05-02T08:44:56;5.15;;;2.70;;
71343;SDS011;59146;43.850;25.948;2023-05-02T08:47:22;7.47;;;3.95;;
71343;SDS011;59146;43.850;25.948;2023-05-02T08:49:48;6.70;;;2.63;;
71343;SDS011;59146;43.850;25.948;2023-05-02T08:52:15;4.65;;;2.38;;
71343;SDS011;59146;43.850;25.948;2023-05-02T08:54:43;3.00;;;2.20;;
71343;SDS011;59146;43.850;25.948;2023-05-02T08:57:09;4.57;;;2.33;;
71343;SDS011;59146;43.850;25.948;2023-05-02T08:59:34;19.38;;;3.55;;
71343;SDS011;59146;43.850;25.948;2023-05-02T09:02:03;4.38;;;2.70;;
71343;SDS011;59146;43.850;25.948;2023-05-02T09:04:32;6.28;;;2.00;;
71343;SDS011;59146;43.850;25.948;2023-05-02T09:07:00;12.80;;;2.60;;
71343;SDS011;59146;43.850;25.948;2023-05-02T09:09:25;4.70;;;2.40;;
71343;SDS011;59146;43.850;25.948;2023-05-02T09:11:51;9.90;;;2.50;;
71343;SDS011;59146;43.850;25.948;2023-05-02T09:14:16;5.30;;;2.78;;
71343;SDS011;59146;43.850;25.948;2023-05-02T09:16:43;6.43;;;2.30;;
71343;SDS011;59146;43.850;25.948;2023-05-02T09:19:09;7.20;;;2.13;;
71343;SDS011;59146;43.850;25.948;2023-05-02T09:21:36;7.97;;;2.22;;
71343;SDS011;59146;43.850;25.948;2023-05-02T09:24:02;5.60;;;2.25;;
71343;SDS011;59146;43.850;25.948;2023-05-02T09:26:40;5.82;;;2.22;;
71343;SDS011;59146;43.850;25.948;2023-05-02T09:29:05;9.70;;;2.65;;
71343;SDS011;59146;43.850;25.948;2023-05-02T09:31:32;9.90;;;2.38;;
71343;SDS011;59146;43.850;25.948;2023-05-02T09:34:08;4.22;;;2.40;;
71343;SDS011;59146;43.850;25.948;2023-05-02T09:39:11;6.82;;;1.95;;
71343;SDS011;59146;43.850;25.948;2023-05-02T09:41:41;4.18;;;2.13;;
71343;SDS011;59146;43.850;25.948;2023-05-02T09:44:10;4.32;;;2.47;;
71343;SDS011;59146;43.850;25.948;2023-05-02T09:46:40;11.20;;;2.85;;
71343;SDS011;59146;43.850;25.948;2023-05-02T09:49:12;3.90;;;2.22;;
71343;SDS011;59146;43.850;25.948;2023-05-02T09:51:39;4.13;;;2.47;;
71343;SDS011;59146;43.850;25.948;2023-05-02T09:54:05;2.65;;;1.80;;
71343;SDS011;59146;43.850;25.948;2023-05-02T09:56:30;9.27;;;2.25;;
71343;SDS011;59146;43.850;25.948;2023-05-02T09:59:11;11.27;;;2.28;;
71343;SDS011;59146;43.850;25.948;2023-05-02T10:01:39;8.43;;;2.53;;
71343;SDS011;59146;43.850;25.948;2023-05-02T10:04:05;4.75;;;1.98;;
71343;SDS011;59146;43.850;25.948;2023-05-02T10:06:38;10.13;;;2.47;;
71343;SDS011;59146;43.850;25.948;2023-05-02T10:09:04;5.85;;;2.20;;
71343;SDS011;59146;43.850;25.948;2023-05-02T10:11:29;5.53;;;2.10;;
71343;SDS011;59146;43.850;25.948;2023-05-02T10:13:56;8.60;;;1.98;;
71343;SDS011;59146;43.850;25.948;2023-05-02T10:16:25;4.72;;;2.22;;
71343;SDS011;59146;43.850;25.948;2023-05-02T10:18:57;8.93;;;1.90;;
71343;SDS011;59146;43.850;25.948;2023-05-02T10:21:27;9.77;;;1.98;;
71343;SDS011;59146;43.850;25.948;2023-05-02T10:23:53;13.95;;;2.03;;
71343;SDS011;59146;43.850;25.948;2023-05-02T10:26:19;2.00;;;1.73;;
71343;SDS011;59146;43.850;25.948;2023-05-02T10:28:47;7.65;;;1.63;;
71343;SDS011;59146;43.850;25.948;2023-05-02T10:31:14;16.67;;;2.58;;
71343;SDS011;59146;43.850;25.948;2023-05-02T10:33:40;8.63;;;2.00;;
71343;SDS011;59146;43.850;25.948;2023-05-02T10:36:06;5.05;;;2.25;;
71343;SDS011;59146;43.850;25.948;2023-05-02T10:38:33;1.52;;;1.33;;
71343;SDS011;59146;43.850;25.948;2023-05-02T10:41:33;6.63;;;2.08;;
71343;SDS011;59146;43.850;25.948;2023-05-02T10:43:55;3.80;;;1.55;;
71343;SDS011;59146;43.850;25.948;2023-05-02T10:46:30;14.35;;;2.10;;
71343;SDS011;59146;43.850;25.948;2023-05-02T10:49:01;16.45;;;2.50;;
71343;SDS011;59146;43.850;25.948;2023-05-02T10:51:35;5.10;;;1.95;;
71343;SDS011;59146;43.850;25.948;2023-05-02T11:02:02;6.82;;;2.13;;
71343;SDS011;59146;43.850;25.948;2023-05-02T11:07:22;6.32;;;2.00;;
71343;SDS011;59146;43.850;25.948;2023-05-02T11:09:48;4.53;;;1.98;;
71343;SDS011;59146;43.850;25.948;2023-05-02T11:12:41;2.60;;;2.08;;
71343;SDS011;59146;43.850;25.948;2023-05-02T11:15:13;8.95;;;2.67;;
71343;SDS011;59146;43.850;25.948;2023-05-02T11:20:26;6.88;;;2.28;;
71343;SDS011;59146;43.850;25.948;2023-05-02T11:22:52;4.00;;;2.05;;
71343;SDS011;59146;43.850;25.948;2023-05-02T11:25:29;4.85;;;2.53;;
71343;SDS011;59146;43.850;25.948;2023-05-02T11:27:54;16.13;;;2.20;;
71343;SDS011;59146;43.850;25.948;2023-05-02T11:35:34;3.22;;;2.13;;
71343;SDS011;59146;43.850;25.948;2023-05-02T11:38:03;9.55;;;2.45;;
71343;SDS011;59146;43.850;25.948;2023-05-02T11:40:36;2.92;;;2.10;;
71343;SDS011;59146;43.850;25.948;2023-05-02T11:43:11;20.55;;;2.50;;
71343;SDS011;59146;43.850;25.948;2023-05-02T11:45:40;4.18;;;1.90;;
71343;SDS011;59146;43.850;25.948;2023-05-02T11:48:07;4.00;;;2.03;;
71343;SDS011;59146;43.850;25.948;2023-05-02T11:53:13;5.70;;;2.00;;
71343;SDS011;59146;43.850;25.948;2023-05-02T11:55:46;10.65;;;1.92;;
71343;SDS011;59146;43.850;25.948;2023-05-02T11:58:14;7.22;;;1.90;;
71343;SDS011;59146;43.850;25.948;2023-05-02T12:00:41;7.38;;;1.77;;
71343;SDS011;59146;43.850;25.948;2023-05-02T12:03:17;3.45;;;1.70;;
71343;SDS011;59146;43.850;25.948;2023-05-02T12:05:47;15.88;;;2.13;;
71343;SDS011;59146;43.850;25.948;2023-05-02T12:10:48;6.15;;;1.83;;
71343;SDS011;59146;43.850;25.948;2023-05-02T12:13:16;3.92;;;2.22;;
71343;SDS011;59146;43.850;25.948;2023-05-02T12:15:42;6.97;;;2.13;;
71343;SDS011;59146;43.850;25.948;2023-05-02T12:18:07;3.25;;;2.38;;
71343;SDS011;59146;43.850;25.948;2023-05-02T12:20:34;4.45;;;1.80;;
71343;SDS011;59146;43.850;25.948;2023-05-02T12:23:00;5.05;;;2.00;;
71343;SDS011;59146;43.850;25.948;2023-05-02T12:25:26;4.95;;;1.90;;
71343;SDS011;59146;43.850;25.948;2023-05-02T12:27:58;3.55;;;1.92;;
71343;SDS011;59146;43.850;25.948;2023-05-02T12:30:27;19.10;;;2.22;;
71343;SDS011;59146;43.850;25.948;2023-05-02T12:32:57;6.05;;;1.73;;
71343;SDS011;59146;43.850;25.948;2023-05-02T12:35:24;3.15;;;1.80;;
71343;SDS011;59146;43.850;25.948;2023-05-02T12:37:50;6.75;;;1.77;;
71343;SDS011;59146;43.850;25.948;2023-05-02T12:40:16;4.60;;;2.00;;
71343;SDS011;59146;43.850;25.948;2023-05-02T12:42:42;17.08;;;2.95;;
71343;SDS011;59146;43.850;25.948;2023-05-02T12:45:16;4.78;;;1.70;;
71343;SDS011;59146;43.850;25.948;2023-05-02T12:47:45;4.32;;;1.60;;
71343;SDS011;59146;43.850;25.948;2023-05-02T12:50:10;10.75;;;2.15;;
71343;SDS011;59146;43.850;25.948;2023-05-02T12:52:49;10.88;;;2.05;;
71343;SDS011;59146;43.850;25.948;2023-05-02T12:55:22;6.63;;;2.38;;
71343;SDS011;59146;43.850;25.948;2023-05-02T12:57:49;3.63;;;1.75;;
71343;SDS011;59146;43.850;25.948;2023-05-02T13:00:15;3.13;;;2.38;;
71343;SDS011;59146;43.850;25.948;2023-05-02T13:02:42;2.22;;;1.92;;
71343;SDS011;59146;43.850;25.948;2023-05-02T13:05:14;3.15;;;1.92;;
71343;SDS011;59146;43.850;25.948;2023-05-02T13:07:43;4.93;;;2.30;;
71343;SDS011;59146;43.850;25.948;2023-05-02T13:10:09;7.25;;;2.00;;
71343;SDS011;59146;43.850;25.948;2023-05-02T13:12:35;7.72;;;2.28;;
71343;SDS011;59146;43.850;25.948;2023-05-02T13:15:05;6.70;;;2.17;;
71343;SDS011;59146;43.850;25.948;2023-05-02T13:17:32;4.88;;;1.70;;
71343;SDS011;59146;43.850;25.948;2023-05-02T13:19:58;8.50;;;1.92;;
71343;SDS011;59146;43.850;25.948;2023-05-02T13:22:24;8.48;;;1.95;;
71343;SDS011;59146;43.850;25.948;2023-05-02T13:24:50;19.38;;;3.22;;
71343;SDS011;59146;43.850;25.948;2023-05-02T13:27:16;11.13;;;2.78;;
71343;SDS011;59146;43.850;25.948;2023-05-02T13:29:45;9.70;;;2.20;;
71343;SDS011;59146;43.850;25.948;2023-05-02T13:32:10;10.07;;;2.15;;
71343;SDS011;59146;43.850;25.948;2023-05-02T13:34:36;6.32;;;2.17;;
71343;SDS011;59146;43.850;25.948;2023-05-02T13:37:01;9.48;;;1.92;;
71343;SDS011;59146;43.850;25.948;2023-05-02T13:39:27;6.00;;;2.05;;
71343;SDS011;59146;43.850;25.948;2023-05-02T13:41:53;7.55;;;1.88;;
71343;SDS011;59146;43.850;25.948;2023-05-02T13:44:18;7.47;;;3.30;;
71343;SDS011;59146;43.850;25.948;2023-05-02T13:46:43;5.97;;;2.75;;
71343;SDS011;59146;43.850;25.948;2023-05-02T13:49:09;7.35;;;2.35;;
71343;SDS011;59146;43.850;25.948;2023-05-02T13:51:34;3.70;;;1.75;;
71343;SDS011;59146;43.850;25.948;2023-05-02T13:54:00;8.80;;;2.10;;
71343;SDS011;59146;43.850;25.948;2023-05-02T13:56:26;13.65;;;2.35;;
71343;SDS011;59146;43.850;25.948;2023-05-02T13:58:52;8.05;;;1.92;;
71343;SDS011;59146;43.850;25.948;2023-05-02T14:01:17;9.68;;;2.08;;
71343;SDS011;59146;43.850;25.948;2023-05-02T14:03:42;8.48;;;2.35;;
71343;SDS011;59146;43.850;25.948;2023-05-02T14:06:08;5.70;;;2.25;;
71343;SDS011;59146;43.850;25.948;2023-05-02T14:08:34;7.60;;;2.05;;
71343;SDS011;59146;43.850;25.948;2023-05-02T14:10:59;2.85;;;1.63;;
71343;SDS011;59146;43.850;25.948;2023-05-02T14:13:25;7.45;;;2.08;;
71343;SDS011;59146;43.850;25.948;2023-05-02T14:15:51;8.50;;;1.75;;
71343;SDS011;59146;43.850;25.948;2023-05-02T14:18:17;10.88;;;2.33;;
71343;SDS011;59146;43.850;25.948;2023-05-02T14:20:43;3.38;;;1.80;;
71343;SDS011;59146;43.850;25.948;2023-05-02T14:23:08;4.00;;;1.60;;
71343;SDS011;59146;43.850;25.948;2023-05-02T14:25:34;7.80;;;1.85;;
71343;SDS011;59146;43.850;25.948;2023-05-02T14:28:00;7.25;;;2.00;;
71343;SDS011;59146;43.850;25.948;2023-05-02T14:30:26;6.10;;;1.67;;
71343;SDS011;59146;43.850;25.948;2023-05-02T14:32:52;7.00;;;1.80;;
71343;SDS011;59146;43.850;25.948;2023-05-02T14:35:18;4.32;;;2.22;;
71343;SDS011;59146;43.850;25.948;2023-05-02T14:37:43;6.18;;;2.22;;
71343;SDS011;59146;43.850;25.948;2023-05-02T14:40:09;8.02;;;1.77;;
71343;SDS011;59146;43.850;25.948;2023-05-02T14:42:36;8.30;;;2.83;;
71343;SDS011;59146;43.850;25.948;2023-05-02T14:45:01;5.68;;;2.05;;
71343;SDS011;59146;43.850;25.948;2023-05-02T14:47:27;10.73;;;1.90;;
71343;SDS011;59146;43.850;25.948;2023-05-02T14:49:55;2.97;;;1.90;;
71343;SDS011;59146;43.850;25.948;2023-05-02T14:52:20;4.40;;;1.90;;
71343;SDS011;59146;43.850;25.948;2023-05-02T14:54:46;6.80;;;1.98;;
71343;SDS011;59146;43.850;25.948;2023-05-02T14:57:12;4.20;;;1.80;;
71343;SDS011;59146;43.850;25.948;2023-05-02T14:59:37;8.07;;;1.80;;
71343;SDS011;59146;43.850;25.948;2023-05-02T15:02:03;4.93;;;1.83;;
71343;SDS011;59146;43.850;25.948;2023-05-02T15:04:29;5.18;;;1.90;;
71343;SDS011;59146;43.850;25.948;2023-05-02T15:06:54;4.28;;;2.17;;
71343;SDS011;59146;43.850;25.948;2023-05-02T15:09:22;3.75;;;1.65;;
71343;SDS011;59146;43.850;25.948;2023-05-02T15:11:50;7.28;;;1.80;;
71343;SDS011;59146;43.850;25.948;2023-05-02T15:14:16;4.13;;;1.85;;
71343;SDS011;59146;43.850;25.948;2023-05-02T15:16:41;10.98;;;2.33;;
71343;SDS011;59146;43.850;25.948;2023-05-02T15:19:07;7.03;;;2.03;;